createdAt,value
2023-02-11T00:00:12.552Z,28.40
2023-02-11T00:03:26.479Z,25.70
2023-02-11T00:06:20.771Z,27.80
2023-02-11T00:09:15.286Z,26.40
2023-02-11T00:12:09.404Z,26.70
2023-02-11T00:15:03.117Z,27.00
2023-02-11T00:17:56.846Z,26.30
2023-02-11T00:20:50.584Z,26.20
2023-02-11T00:23:44.995Z,24.30
2023-02-11T00:26:39.341Z,25.80
2023-02-11T00:29:33.060Z,25.30
2023-02-11T00:32:26.877Z,22.70
2023-02-11T00:35:20.651Z,26.40
2023-02-11T00:38:14.370Z,25.80
2023-02-11T00:41:08.408Z,23.90
2023-02-11T00:44:02.437Z,24.20
2023-02-11T00:46:56.190Z,24.40
2023-02-11T00:49:49.973Z,23.60
2023-02-11T00:52:43.658Z,25.60
2023-02-11T00:55:37.474Z,23.80
2023-02-11T00:58:31.487Z,27.60
2023-02-11T01:01:25.368Z,29.20
2023-02-11T01:04:19.247Z,26.40
2023-02-11T01:07:12.846Z,27.70
2023-02-11T01:10:07.328Z,26.20
2023-02-11T01:13:01.625Z,26.90
2023-02-11T01:15:55.641Z,24.90
2023-02-11T01:18:49.398Z,24.70
2023-02-11T01:21:43.132Z,25.80
2023-02-11T01:24:36.716Z,30.30
2023-02-11T01:27:30.457Z,28.00
2023-02-11T01:30:24.098Z,28.40
2023-02-11T01:33:18.311Z,27.90
2023-02-11T01:36:13.861Z,26.20
2023-02-11T01:39:08.535Z,26.00
2023-02-11T01:42:02.224Z,27.60
2023-02-11T01:44:58.522Z,31.30
2023-02-11T01:47:52.135Z,25.40
2023-02-11T01:50:47.709Z,26.00
2023-02-11T01:53:59.409Z,26.00
2023-02-11T01:57:14.285Z,26.40
2023-02-11T02:00:16.587Z,28.40
2023-02-11T02:03:15.581Z,28.40
2023-02-11T02:06:17.736Z,26.90
2023-02-11T02:09:17.947Z,25.90
2023-02-11T02:12:11.659Z,28.90
2023-02-11T02:15:28.140Z,28.60
2023-02-11T02:18:26.837Z,27.80
2023-02-11T02:22:00.792Z,26.50
2023-02-11T02:25:16.949Z,26.40
2023-02-11T02:28:37.220Z,27.60
2023-02-11T02:31:50.984Z,27.30
2023-02-11T02:34:55.460Z,27.10
2023-02-11T02:37:58.684Z,29.20
2023-02-11T02:40:59.103Z,27.50
2023-02-11T02:43:54.834Z,28.20
2023-02-11T02:46:48.700Z,31.30
2023-02-11T02:49:42.499Z,24.30
2023-02-11T02:52:48.165Z,26.70
2023-02-11T02:55:59.603Z,26.70
2023-02-11T02:59:19.919Z,26.80
2023-02-11T03:02:25.051Z,26.90
2023-02-11T03:05:24.634Z,29.20
2023-02-11T03:08:25.369Z,28.20
2023-02-11T03:11:21.966Z,25.60
2023-02-11T03:14:20.425Z,23.80
2023-02-11T03:17:15.325Z,25.20
2023-02-11T03:20:14.871Z,25.00
2023-02-11T03:23:16.327Z,25.40
2023-02-11T03:26:19.592Z,25.80
2023-02-11T03:29:24.312Z,25.30
2023-02-11T03:32:24.390Z,24.10
2023-02-11T03:35:24.017Z,26.80
2023-02-11T03:38:23.533Z,25.90
2023-02-11T03:41:21.077Z,24.30
2023-02-11T03:47:11.818Z,25.30
2023-02-11T03:50:08.948Z,24.60
2023-02-11T03:53:04.158Z,28.40
2023-02-11T03:56:03.888Z,25.60
2023-02-11T03:58:57.866Z,26.60
2023-02-11T04:01:51.750Z,25.00
2023-02-11T04:04:45.927Z,24.70
2023-02-11T04:07:39.616Z,25.30
2023-02-11T04:10:33.506Z,23.50
2023-02-11T04:13:28.584Z,23.80
2023-02-11T04:16:22.314Z,22.90
2023-02-11T04:19:16.052Z,23.60
2023-02-11T04:22:09.837Z,24.40
2023-02-11T04:25:03.950Z,24.40
2023-02-11T04:27:57.760Z,25.90
2023-02-11T04:30:53.372Z,26.30
2023-02-11T04:33:38.465Z,24.10
2023-02-11T04:36:32.260Z,24.40
2023-02-11T04:39:25.966Z,24.20
2023-02-11T04:42:19.721Z,23.00
2023-02-11T04:45:13.946Z,23.00
2023-02-11T04:48:08.240Z,26.10
2023-02-11T04:51:02.204Z,24.60
2023-02-11T04:53:55.899Z,22.80
2023-02-11T04:56:51.110Z,22.50
2023-02-11T04:59:45.281Z,22.00
2023-02-11T05:02:39.141Z,24.70
2023-02-11T05:05:33.723Z,26.40
2023-02-11T05:08:27.395Z,22.60
2023-02-11T05:11:24.355Z,24.90
2023-02-11T05:14:18.103Z,21.70
2023-02-11T05:17:11.872Z,23.90
2023-02-11T05:20:06.630Z,21.60
2023-02-11T05:23:00.323Z,24.40
2023-02-11T05:25:53.947Z,23.00
2023-02-11T05:28:47.770Z,23.80
2023-02-11T05:31:41.494Z,23.50
2023-02-11T05:34:35.216Z,21.30
2023-02-11T05:37:29.356Z,23.70
2023-02-11T05:40:23.441Z,21.20
2023-02-11T05:43:17.104Z,21.50
2023-02-11T05:46:10.765Z,23.40
2023-02-11T05:49:04.752Z,23.30
2023-02-11T05:51:58.480Z,21.80
2023-02-11T05:54:52.414Z,25.20
2023-02-11T05:57:46.132Z,22.10
2023-02-11T06:00:40.289Z,23.00
2023-02-11T06:03:34.214Z,21.40
2023-02-11T06:06:28.268Z,23.20
2023-02-11T06:09:21.978Z,21.10
2023-02-11T06:12:15.762Z,21.10
2023-02-11T06:15:10.654Z,23.50
2023-02-11T06:18:04.449Z,24.50
2023-02-11T06:20:58.322Z,21.60
2023-02-11T06:23:51.963Z,22.10
2023-02-11T06:26:45.728Z,22.80
2023-02-11T06:29:39.405Z,22.60
2023-02-11T06:32:44.054Z,23.30
2023-02-11T06:35:40.711Z,23.20
2023-02-11T06:38:34.402Z,21.50
2023-02-11T06:41:28.113Z,21.70
2023-02-11T06:44:21.914Z,21.40
2023-02-11T06:47:15.686Z,20.50
2023-02-11T06:49:54.841Z,19.90
2023-02-11T06:52:48.710Z,21.50
2023-02-11T06:55:42.343Z,21.00
2023-02-11T06:58:36.332Z,21.50
2023-02-11T07:01:30.811Z,19.10
2023-02-11T07:04:24.540Z,24.10
2023-02-11T07:07:18.457Z,20.20
2023-02-11T07:09:52.088Z,18.40
2023-02-11T07:12:46.097Z,21.70
2023-02-11T07:15:20.269Z,21.00
2023-02-11T07:18:14.798Z,23.50
2023-02-11T07:21:12.335Z,22.30
2023-02-11T07:24:11.067Z,23.00
2023-02-11T07:27:05.130Z,20.40
2023-02-11T07:29:58.978Z,21.20
2023-02-11T07:32:52.717Z,28.30
2023-02-11T07:35:46.495Z,21.60
2023-02-11T07:38:41.181Z,26.60
2023-02-11T07:41:37.895Z,24.10
2023-02-11T07:44:33.216Z,24.60
2023-02-11T07:47:26.856Z,27.20
2023-02-11T07:50:21.438Z,37.30
2023-02-11T07:53:15.031Z,31.50
2023-02-11T07:56:11.519Z,30.60
2023-02-11T07:59:07.150Z,32.70
2023-02-11T08:02:00.807Z,33.00
2023-02-11T08:04:54.915Z,28.30
2023-02-11T08:07:49.369Z,34.00
2023-02-11T08:10:43.101Z,27.20
2023-02-11T08:13:37.172Z,30.50
2023-02-11T08:16:33.650Z,30.60
2023-02-11T08:19:28.090Z,24.30
2023-02-11T08:22:21.847Z,22.70
2023-02-11T08:25:15.647Z,24.10
2023-02-11T08:28:09.654Z,21.00
2023-02-11T08:31:09.194Z,17.00
2023-02-11T08:34:03.725Z,17.20
2023-02-11T08:36:57.458Z,25.20
2023-02-11T08:39:51.511Z,23.50
2023-02-11T08:42:45.258Z,23.40
2023-02-11T08:45:39.881Z,18.30
2023-02-11T08:48:33.790Z,23.20
2023-02-11T08:51:31.577Z,22.20
2023-02-11T08:54:25.327Z,21.40
2023-02-11T08:57:18.957Z,22.40
2023-02-11T09:00:16.522Z,19.50
2023-02-11T09:03:10.710Z,23.80
2023-02-11T09:06:07.902Z,17.30
2023-02-11T09:09:01.641Z,18.60
2023-02-11T09:11:57.388Z,15.60
2023-02-11T09:14:51.133Z,17.70
2023-02-11T09:17:45.120Z,17.60
2023-02-11T09:20:39.223Z,17.70
2023-02-11T09:23:34.450Z,17.70
2023-02-11T09:26:31.183Z,16.70
2023-02-11T09:29:24.913Z,17.60
2023-02-11T09:32:18.637Z,16.30
2023-02-11T09:35:09.330Z,18.90
2023-02-11T09:38:03.072Z,18.00
2023-02-11T09:40:56.899Z,17.30
2023-02-11T09:43:52.639Z,16.60
2023-02-11T09:47:00.815Z,18.40
2023-02-11T09:50:00.138Z,17.30
2023-02-11T09:53:01.636Z,16.40
2023-02-11T09:55:59.450Z,19.60
2023-02-11T10:02:08.504Z,15.30
2023-02-11T10:05:34.644Z,18.00
2023-02-11T10:08:42.540Z,14.40
2023-02-11T10:11:50.803Z,19.80
2023-02-11T10:15:18.549Z,20.00
2023-02-11T10:18:44.890Z,14.30
2023-02-11T10:21:51.566Z,16.30
2023-02-11T10:24:52.533Z,16.80
2023-02-11T10:27:47.348Z,14.80
2023-02-11T10:30:52.633Z,12.60
2023-02-11T10:33:35.541Z,16.20
2023-02-11T10:36:34.030Z,15.80
2023-02-11T10:39:18.546Z,16.60
2023-02-11T10:42:03.671Z,15.20
2023-02-11T10:45:06.360Z,17.00
2023-02-11T10:48:00.729Z,15.70
2023-02-11T10:51:24.372Z,16.30
2023-02-11T10:54:21.262Z,15.70
2023-02-11T10:57:21.403Z,12.10
2023-02-11T11:00:32.472Z,16.10
2023-02-11T11:03:08.761Z,14.70
2023-02-11T11:06:05.314Z,17.40
2023-02-11T11:08:59.171Z,12.60
2023-02-11T11:11:56.727Z,15.20
2023-02-11T11:14:58.118Z,13.40
2023-02-11T11:17:53.178Z,14.00
2023-02-11T11:20:59.879Z,21.00
2023-02-11T11:24:00.417Z,24.00
2023-02-11T11:26:56.499Z,18.20
2023-02-11T11:29:53.268Z,25.90
2023-02-11T11:32:47.926Z,18.20
2023-02-11T11:35:41.992Z,21.00
2023-02-11T11:38:38.189Z,24.50
2023-02-11T11:41:35.160Z,21.10
2023-02-11T11:44:33.495Z,22.40
2023-02-11T11:47:45.789Z,25.60
2023-02-11T11:50:44.544Z,21.20
2023-02-11T11:53:46.672Z,25.00
2023-02-11T11:56:48.552Z,26.50
2023-02-11T11:59:42.380Z,28.50
2023-02-11T12:03:21.594Z,22.80
2023-02-11T12:06:35.463Z,37.90
2023-02-11T12:09:25.450Z,32.00
2023-02-11T12:12:35.457Z,34.80
2023-02-11T12:15:37.534Z,68.00
2023-02-11T12:18:52.988Z,54.00
2023-02-11T12:21:55.907Z,65.20
2023-02-11T12:25:13.804Z,74.00
2023-02-11T12:28:40.222Z,68.40
2023-02-11T12:31:49.151Z,62.90
2023-02-11T12:35:08.935Z,111.80
2023-02-11T12:38:53.793Z,116.90
2023-02-11T12:42:24.401Z,72.10
2023-02-11T12:45:31.954Z,70.60
2023-02-11T12:48:26.602Z,68.60
2023-02-11T12:51:34.773Z,71.50
2023-02-11T12:54:34.422Z,90.00
2023-02-11T12:57:32.490Z,91.60
2023-02-11T13:00:22.324Z,86.40
2023-02-11T13:03:25.504Z,155.10
2023-02-11T13:06:23.740Z,210.40
2023-02-11T13:09:24.041Z,234.30
2023-02-11T13:12:36.546Z,114.70
2023-02-11T13:15:31.071Z,95.80
2023-02-11T13:18:44.992Z,81.90
2023-02-11T13:22:01.028Z,84.10
2023-02-11T13:25:03.703Z,80.70
2023-02-11T13:27:58.858Z,83.00
2023-02-11T13:31:03.238Z,82.80
2023-02-11T13:33:57.353Z,77.80
2023-02-11T13:36:57.284Z,81.90
2023-02-11T13:40:03.891Z,81.40
2023-02-11T13:43:00.244Z,86.50
2023-02-11T13:45:59.092Z,80.80
2023-02-11T13:48:55.384Z,84.30
2023-02-11T13:51:46.267Z,71.00
2023-02-11T13:54:42.705Z,69.80
2023-02-11T13:57:43.279Z,65.70
2023-02-11T14:00:54.014Z,73.00
2023-02-11T14:04:38.049Z,69.40
2023-02-11T14:08:06.615Z,59.80
2023-02-11T14:10:57.760Z,61.80
2023-02-11T14:14:18.409Z,63.10
2023-02-11T14:17:33.085Z,59.20
2023-02-11T14:20:45.400Z,64.30
2023-02-11T14:23:39.410Z,63.50
2023-02-11T14:26:48.049Z,57.80
2023-02-11T14:30:00.084Z,60.50
2023-02-11T14:32:58.144Z,54.20
2023-02-11T14:36:11.314Z,59.70
2023-02-11T14:39:17.751Z,54.10
2023-02-11T14:42:19.935Z,54.10
2023-02-11T14:45:21.004Z,57.40
2023-02-11T14:48:19.692Z,54.70
2023-02-11T14:51:19.536Z,52.00
2023-02-11T14:54:18.628Z,54.50
2023-02-11T14:57:16.708Z,47.70
2023-02-11T15:00:23.467Z,52.10
2023-02-11T15:03:33.802Z,52.60
2023-02-11T15:06:33.055Z,47.50
2023-02-11T15:09:25.454Z,46.70
2023-02-11T15:12:02.455Z,46.70
2023-02-11T15:14:41.672Z,46.20
2023-02-11T15:17:35.923Z,46.50
2023-02-11T15:20:33.365Z,44.70
2023-02-11T15:23:30.220Z,50.50
2023-02-11T15:26:24.539Z,44.90
2023-02-11T15:29:21.199Z,45.10
2023-02-11T15:32:22.047Z,47.70
2023-02-11T15:34:58.587Z,40.10
2023-02-11T15:37:52.403Z,43.40
2023-02-11T15:40:58.568Z,39.50
2023-02-11T15:43:51.578Z,39.50
2023-02-11T15:46:41.509Z,43.70
2023-02-11T15:49:35.431Z,41.50
2023-02-11T15:52:30.962Z,41.20
2023-02-11T15:55:26.314Z,40.90
2023-02-11T15:58:21.688Z,38.20
2023-02-11T16:01:15.539Z,37.00
2023-02-11T16:04:15.994Z,37.50
2023-02-11T16:07:41.011Z,39.20
2023-02-11T16:10:37.187Z,37.90
2023-02-11T16:13:34.167Z,36.20
2023-02-11T16:16:30.876Z,37.80
2023-02-11T16:19:27.278Z,36.50
2023-02-11T16:22:25.344Z,33.30
2023-02-11T16:25:24.579Z,38.00
2023-02-11T16:28:21.362Z,36.20
2023-02-11T16:31:15.392Z,34.30
2023-02-11T16:34:18.625Z,33.60
2023-02-11T16:37:13.021Z,34.60
2023-02-11T16:40:08.210Z,38.00
2023-02-11T16:43:02.256Z,37.80
2023-02-11T16:45:56.357Z,34.40
2023-02-11T16:48:50.533Z,33.10
2023-02-11T16:51:46.347Z,39.30
2023-02-11T16:54:40.205Z,33.30
2023-02-11T16:57:26.942Z,35.70
2023-02-11T17:00:24.409Z,34.80
2023-02-11T17:03:26.919Z,31.90
2023-02-11T17:06:17.668Z,37.00
2023-02-11T17:09:16.947Z,31.60
2023-02-11T17:12:11.452Z,34.20
2023-02-11T17:15:07.591Z,35.20
2023-02-11T17:18:01.775Z,31.90
2023-02-11T17:20:56.758Z,32.60
2023-02-11T17:23:50.463Z,38.50
2023-02-11T17:26:45.370Z,35.70
2023-02-11T17:29:39.747Z,39.70
2023-02-11T17:32:33.733Z,37.20
2023-02-11T17:35:27.629Z,34.70
2023-02-11T17:38:22.501Z,35.80
2023-02-11T17:41:16.548Z,39.90
2023-02-11T17:44:14.068Z,40.30
2023-02-11T17:47:08.089Z,37.60
2023-02-11T17:50:02.993Z,38.40
2023-02-11T17:52:56.927Z,36.60
2023-02-11T17:55:51.057Z,39.80
2023-02-11T17:58:45.923Z,39.80
2023-02-11T18:01:42.326Z,39.80
2023-02-11T18:04:36.365Z,44.20
2023-02-11T18:07:30.257Z,37.40
2023-02-11T18:10:24.888Z,35.90
2023-02-11T18:13:19.411Z,37.30
2023-02-11T18:16:15.823Z,36.70
2023-02-11T18:19:11.603Z,33.50
2023-02-11T18:21:54.561Z,36.10
2023-02-11T18:24:52.253Z,39.50
2023-02-11T18:30:39.012Z,31.80
2023-02-11T18:33:33.955Z,33.40
2023-02-11T18:36:14.324Z,33.00
2023-02-11T18:38:48.034Z,36.20
2023-02-11T18:41:25.442Z,37.60
2023-02-11T18:44:22.298Z,32.60
2023-02-11T18:47:16.027Z,31.30
2023-02-11T18:50:15.551Z,32.40
2023-02-11T18:53:09.459Z,37.20
2023-02-11T18:56:18.591Z,35.30
2023-02-11T18:59:12.640Z,35.10
2023-02-11T19:02:06.370Z,29.80
2023-02-11T19:05:00.261Z,34.10
2023-02-11T19:07:54.120Z,31.10
2023-02-11T19:10:50.362Z,30.30
2023-02-11T19:13:44.339Z,30.00
2023-02-11T19:16:38.406Z,32.30
2023-02-11T19:19:37.046Z,31.50
2023-02-11T19:22:31.220Z,36.40
2023-02-11T19:25:25.286Z,31.40
2023-02-11T19:28:19.399Z,31.20
2023-02-11T19:31:13.625Z,25.90
2023-02-11T19:34:08.687Z,30.00
2023-02-11T19:37:02.425Z,29.10
2023-02-11T19:39:56.220Z,30.50
2023-02-11T19:42:35.338Z,29.40
2023-02-11T19:45:29.275Z,28.00
2023-02-11T19:48:23.173Z,28.00
2023-02-11T19:51:17.265Z,30.80
2023-02-11T19:54:11.290Z,28.20
2023-02-11T19:57:05.251Z,25.50
2023-02-11T19:59:59.300Z,27.00
2023-02-11T20:02:38.385Z,28.00
2023-02-11T20:05:32.698Z,27.10
2023-02-11T20:08:26.558Z,24.30
2023-02-11T20:11:20.982Z,26.50
2023-02-11T20:14:16.774Z,28.60
2023-02-11T20:17:10.888Z,31.60
2023-02-11T20:20:04.937Z,34.60
2023-02-11T20:22:44.191Z,30.70
2023-02-11T20:25:41.367Z,36.00
2023-02-11T20:28:35.011Z,25.10
2023-02-11T20:31:30.044Z,31.40
2023-02-11T20:34:25.202Z,30.80
2023-02-11T20:37:19.330Z,27.50
2023-02-11T20:40:14.917Z,24.00
2023-02-11T20:43:09.384Z,25.90
2023-02-11T20:46:09.574Z,28.80
2023-02-11T20:49:06.133Z,24.90
2023-02-11T20:52:00.587Z,23.40
2023-02-11T20:54:54.257Z,24.80
2023-02-11T20:57:48.073Z,25.10
2023-02-11T21:00:41.961Z,24.70
2023-02-11T21:03:35.758Z,23.90
2023-02-11T21:06:35.533Z,24.60
2023-02-11T21:09:32.517Z,22.90
2023-02-11T21:12:26.372Z,23.60
2023-02-11T21:15:21.038Z,22.30
2023-02-11T21:18:14.617Z,22.10
2023-02-11T21:21:08.878Z,22.00
2023-02-11T21:24:02.641Z,23.80
2023-02-11T21:26:56.394Z,22.40
2023-02-11T21:29:54.548Z,20.20
2023-02-11T21:32:48.871Z,18.60
2023-02-11T21:35:42.652Z,22.90
2023-02-11T21:38:36.307Z,19.30
2023-02-11T21:41:30.096Z,21.90
2023-02-11T21:44:23.730Z,18.30
2023-02-11T21:47:17.415Z,19.30
2023-02-11T21:50:12.757Z,19.30
2023-02-11T21:53:07.135Z,18.90
2023-02-11T21:56:10.015Z,17.70
2023-02-11T21:59:04.506Z,17.80
2023-02-11T22:01:58.949Z,18.50
2023-02-11T22:04:53.203Z,17.20
2023-02-11T22:07:47.257Z,18.80
2023-02-11T22:10:41.008Z,18.40
2023-02-11T22:13:35.054Z,17.40
2023-02-11T22:16:30.399Z,16.50
2023-02-11T22:19:25.009Z,17.40
2023-02-11T22:22:19.705Z,16.40
2023-02-11T22:25:13.466Z,16.00
2023-02-11T22:28:07.582Z,15.80
2023-02-11T22:31:01.831Z,17.10
2023-02-11T22:33:55.878Z,18.30
2023-02-11T22:36:49.520Z,15.60
2023-02-11T22:39:43.223Z,17.70
2023-02-11T22:42:36.880Z,15.40
2023-02-11T22:45:30.651Z,16.30
2023-02-11T22:48:24.556Z,16.50
2023-02-11T22:51:20.562Z,16.70
2023-02-11T22:54:18.335Z,17.00
2023-02-11T23:00:09.714Z,18.00
2023-02-11T23:03:03.462Z,17.20
2023-02-11T23:05:58.627Z,15.00
2023-02-11T23:08:52.385Z,17.70
2023-02-11T23:11:46.873Z,16.20
2023-02-11T23:14:40.566Z,17.30
2023-02-11T23:17:34.558Z,14.30
2023-02-11T23:20:28.523Z,15.90
2023-02-11T23:23:22.217Z,15.60
2023-02-11T23:26:18.034Z,14.80
2023-02-11T23:29:12.580Z,17.40
2023-02-11T23:32:06.607Z,15.90
2023-02-11T23:35:00.717Z,14.20
2023-02-11T23:37:55.470Z,15.80
2023-02-11T23:40:49.156Z,17.20
2023-02-11T23:43:43.698Z,16.50
2023-02-11T23:46:37.484Z,15.90
2023-02-11T23:49:31.529Z,18.20
2023-02-11T23:52:25.220Z,18.60
2023-02-11T23:55:19.376Z,15.80
2023-02-11T23:58:14.431Z,15.80
